SILO ALERT LOG


Silo ID Alert Type Alert Message Silo Type Points Depth (mm) Strength Temperature (°C) Humidity (%) Height (mm) Volume (㎥) Weight (t) Flag Time
WJWJR01 Humidity 습도센서 측정값이 80% 초과 70 7629 2079 15.6 81.2 10 1.138 0.719 0 2026-05-22 03:25:53.000
WJWJR01 Humidity 습도센서 측정값이 80% 초과 70 7634 2069 16 80.3 5 0.634 0.401 0 2026-05-22 02:25:56.000
WJWJR01 Humidity 습도센서 측정값이 80% 초과 70 7636 2071 19.4 81.1 3 0.362 0.229 0 2026-05-21 19:25:52.000
WJWJR01 Humidity 습도센서 측정값이 80% 초과 71 7631 2049 19.8 83.3 8 0.948 0.599 0 2026-05-21 18:25:59.000
WJWJR01 Humidity 습도센서 측정값이 80% 초과 69 7639 2042 19.8 84.1 0 0.04 0.025 0 2026-05-21 17:25:52.000
WJWJR05 Humidity 습도센서 측정값이 80% 초과 67 7716 2074 19.7 80.7 13 1.487 0.94 0 2026-05-21 16:26:13.000
WJWJR01 Humidity 습도센서 측정값이 80% 초과 71 7632 2066 20 85.3 7 0.845 0.534 0 2026-05-21 16:25:51.000
WJWJR05 Humidity 습도센서 측정값이 80% 초과 67 7719 2049 19.6 84.5 10 1.207 0.763 0 2026-05-21 15:26:14.000
WJWJR01 Humidity 습도센서 측정값이 80% 초과 71 7628 2053 19.9 89.2 11 1.352 0.854 0 2026-05-21 15:25:53.000
WJWJR05 Humidity 습도센서 측정값이 80% 초과 68 7713 2035 18.8 84.5 16 1.826 1.154 0 2026-05-21 14:26:11.000
WJWJR01 Humidity 습도센서 측정값이 80% 초과 70 7640 2039 19.1 88.9 0 -0.057 0 0 2026-05-21 14:25:59.000
WJWJR05 Humidity 습도센서 측정값이 80% 초과 67 7720 2018 18.1 82.4 9 1.088 0.688 0 2026-05-21 13:26:14.000
WJWJR01 Humidity 습도센서 측정값이 80% 초과 70 7631 2070 18.2 88.2 8 0.934 0.59 0 2026-05-21 13:25:52.000
WJWJR01 Humidity 습도센서 측정값이 80% 초과 69 7636 2079 17.4 86.4 3 0.438 0.277 0 2026-05-21 12:25:52.000
WJWJR01 Humidity 습도센서 측정값이 80% 초과 69 7635 2051 16.8 84.3 4 0.5 0.316 0 2026-05-21 11:25:55.000
WJWJR01 Humidity 습도센서 측정값이 80% 초과 70 7633 2075 16.3 81.7 6 0.782 0.495 0 2026-05-21 10:25:57.000
WJWJR01 Humidity 습도센서 측정값이 80% 초과 71 7631 2052 16.1 80.9 8 0.969 0.613 0 2026-05-21 09:25:54.000
WJWJR01 Humidity 습도센서 측정값이 80% 초과 71 7629 2050 15.8 81.5 10 1.214 0.768 0 2026-05-21 08:25:54.000
WJWJR01 Humidity 습도센서 측정값이 80% 초과 70 7630 2047 15.7 81.9 9 1.076 0.68 0 2026-05-21 07:25:54.000
WJWJR01 Humidity 습도센서 측정값이 80% 초과 71 7635 2071 15.6 82.2 4 0.542 0.342 0 2026-05-21 06:25:53.000

[첫 페이지] [61] [62] [63] [64] 65 [66] [마지막 페이지]